Time;durP1;ratioP1;P1;durP2;ratioP2;P2;SDS_P1;SDS_P2;PMS_P1;PMS_P2;Temp;Humidity;BMP_temperature;BMP_pressure;BME280_temperature;BME280_humidity;BME280_pressure;Samples;Min_cycle;Max_cycle;Signal;HPM_P1;HPM_P2
2023/08/08 00:00:35;;;;;;;8.27;2.28;;;12.40;99.90;;;;;;5050449;28;20025;-81
2023/08/08 00:03:01;;;;;;;6.25;1.98;;;12.40;99.90;;;;;;5070130;22;20052;-85
2023/08/08 00:05:27;;;;;;;7.35;2.33;;;12.40;99.90;;;;;;5050676;28;20021;-86
2023/08/08 00:07:53;;;;;;;6.53;2.38;;;12.40;99.90;;;;;;5033260;28;20021;-85
2023/08/08 00:10:18;;;;;;;7.70;2.58;;;12.40;99.90;;;;;;5033098;28;20028;-86
2023/08/08 00:12:44;;;;;;;7.10;2.08;;;12.50;99.90;;;;;;5053227;28;20487;-89
2023/08/08 00:15:10;;;;;;;9.60;2.30;;;12.40;99.90;;;;;;5056417;28;20013;-85
2023/08/08 00:17:36;;;;;;;9.45;3.00;;;12.40;99.90;;;;;;5047671;28;20033;-85
2023/08/08 00:20:02;;;;;;;8.25;2.50;;;12.40;99.90;;;;;;5032880;28;20879;-87
2023/08/08 00:22:28;;;;;;;9.27;2.72;;;12.40;99.90;;;;;;5055506;28;20032;-86
2023/08/08 00:24:53;;;;;;;7.18;2.33;;;12.40;99.90;;;;;;5066110;28;20021;-86
2023/08/08 00:27:19;;;;;;;7.40;2.50;;;12.30;99.90;;;;;;5051896;28;20029;-87
2023/08/08 00:29:45;;;;;;;9.40;2.38;;;12.30;99.90;;;;;;5051705;28;20029;-86
2023/08/08 00:32:11;;;;;;;4.93;2.08;;;12.30;99.90;;;;;;5044948;28;20017;-85
2023/08/08 00:34:37;;;;;;;3.75;2.00;;;12.20;99.90;;;;;;5035851;28;20392;-86
2023/08/08 00:37:02;;;;;;;5.55;2.10;;;12.20;99.90;;;;;;5046203;28;20021;-86
2023/08/08 00:39:28;;;;;;;5.55;2.22;;;12.10;99.90;;;;;;5026956;28;20028;-86
2023/08/08 00:41:54;;;;;;;5.28;2.00;;;12.00;99.90;;;;;;5051956;28;20028;-87
2023/08/08 00:44:19;;;;;;;4.72;2.00;;;12.10;99.90;;;;;;5051996;28;20522;-86
2023/08/08 00:46:45;;;;;;;5.97;1.75;;;12.10;99.90;;;;;;5034352;28;20747;-86
2023/08/08 00:49:11;;;;;;;3.63;1.98;;;12.00;99.90;;;;;;5034368;28;20013;-87
2023/08/08 00:51:38;;;;;;;5.97;2.13;;;12.00;99.90;;;;;;5058895;28;20021;-87
2023/08/08 00:54:04;;;;;;;2.97;1.70;;;11.90;99.90;;;;;;5040253;28;20488;-86
2023/08/08 00:56:30;;;;;;;4.88;2.20;;;11.90;99.90;;;;;;5033546;28;20081;-87
2023/08/08 00:58:56;;;;;;;5.68;1.95;;;11.80;99.90;;;;;;5033200;28;20124;-85
2023/08/08 01:01:22;;;;;;;3.55;1.92;;;11.80;99.90;;;;;;5051766;28;20480;-84
2023/08/08 01:03:48;;;;;;;3.53;1.67;;;11.80;99.90;;;;;;5036122;23;20038;-81
2023/08/08 01:06:25;;;;;;;5.80;1.90;;;11.80;99.90;;;;;;5010016;28;20041;-81
2023/08/08 01:08:57;;;;;;;3.75;1.75;;;11.80;99.90;;;;;;4985666;28;20014;-81
2023/08/08 01:11:25;;;;;;;3.50;1.80;;;11.90;99.90;;;;;;5002492;28;20048;-82
2023/08/08 01:13:54;;;;;;;3.20;1.50;;;11.90;99.90;;;;;;5005294;28;20042;-82
2023/08/08 01:16:20;;;;;;;3.63;1.55;;;11.90;99.90;;;;;;4989550;28;20030;-81
2023/08/08 01:18:48;;;;;;;3.25;1.42;;;12.00;99.90;;;;;;4989569;28;20041;-83
2023/08/08 01:21:16;;;;;;;4.35;1.60;;;12.00;99.90;;;;;;4990583;28;20014;-82
2023/08/08 01:23:46;;;;;;;3.65;1.38;;;12.00;99.90;;;;;;4992693;28;20027;-82
2023/08/08 01:26:12;;;;;;;6.28;1.67;;;12.10;99.90;;;;;;4994071;28;20026;-80
2023/08/08 01:28:39;;;;;;;6.57;1.63;;;12.10;99.90;;;;;;4995459;28;20015;-81
2023/08/08 01:31:05;;;;;;;4.90;1.77;;;12.20;99.90;;;;;;4994899;28;20025;-81
2023/08/08 01:33:31;;;;;;;11.60;2.17;;;12.10;99.90;;;;;;4992053;28;20034;-82
2023/08/08 01:36:04;;;;;;;2.72;1.80;;;12.20;99.90;;;;;;4994737;28;20034;-83
2023/08/08 01:38:38;;;;;;;6.22;1.83;;;12.30;99.90;;;;;;4977090;28;20038;-82
2023/08/08 01:41:06;;;;;;;3.83;1.50;;;12.30;99.90;;;;;;4977230;28;20030;-82
2023/08/08 01:43:32;;;;;;;5.30;2.08;;;12.30;99.90;;;;;;4994829;28;20054;-82
2023/08/08 01:46:00;;;;;;;2.55;1.50;;;12.30;99.90;;;;;;4994702;28;20019;-82
2023/08/08 01:48:27;;;;;;;4.38;1.90;;;12.30;99.90;;;;;;4994762;28;20101;-82
2023/08/08 01:50:53;;;;;;;4.32;1.73;;;12.30;99.90;;;;;;4977513;28;20021;-82
2023/08/08 01:53:18;;;;;;;6.25;2.33;;;12.20;99.90;;;;;;4977090;28;20026;-82
2023/08/08 01:55:44;;;;;;;2.95;1.63;;;12.20;99.90;;;;;;4980811;28;20110;-83
2023/08/08 01:58:09;;;;;;;3.35;1.58;;;12.20;99.90;;;;;;4980109;28;20488;-82
2023/08/08 02:00:36;;;;;;;7.97;1.58;;;12.20;99.90;;;;;;4994204;28;20026;-82
2023/08/08 02:03:02;;;;;;;4.93;1.80;;;12.10;99.90;;;;;;4992796;23;20010;-89
2023/08/08 02:05:28;;;;;;;4.13;1.98;;;12.10;99.90;;;;;;5048715;28;20040;-89
2023/08/08 02:07:53;;;;;;;9.90;1.83;;;12.10;99.90;;;;;;5053357;28;20021;-87
2023/08/08 02:10:19;;;;;;;4.88;1.95;;;12.10;99.90;;;;;;5051947;28;20013;-89
2023/08/08 02:12:45;;;;;;;3.50;1.52;;;12.10;99.90;;;;;;5053317;28;20415;-87
2023/08/08 02:15:10;;;;;;;4.55;2.17;;;12.10;99.90;;;;;;5032021;28;20465;-88
2023/08/08 02:17:37;;;;;;;7.80;2.13;;;12.00;99.90;;;;;;5053194;28;20063;-87
2023/08/08 02:20:04;;;;;;;5.82;1.77;;;12.00;99.90;;;;;;5034913;28;20076;-87
2023/08/08 02:22:29;;;;;;;6.47;1.60;;;12.00;99.90;;;;;;5053302;28;20024;-87
2023/08/08 02:24:55;;;;;;;4.57;1.80;;;11.90;99.90;;;;;;5052788;28;20025;-87
2023/08/08 02:27:21;;;;;;;4.28;1.65;;;11.90;99.90;;;;;;5034434;28;20025;-89
2023/08/08 02:29:46;;;;;;;5.68;1.92;;;11.90;99.90;;;;;;5052801;28;20045;-88
2023/08/08 02:32:13;;;;;;;3.55;1.85;;;11.90;99.90;;;;;;5053097;28;20100;-88
2023/08/08 02:34:38;;;;;;;3.13;1.85;;;11.80;99.90;;;;;;5034254;28;20021;-89
2023/08/08 02:37:04;;;;;;;4.10;1.67;;;11.80;99.90;;;;;;5052510;28;20031;-89
2023/08/08 02:39:30;;;;;;;4.63;1.77;;;11.80;99.90;;;;;;5052370;28;20493;-88
2023/08/08 02:41:56;;;;;;;5.85;1.83;;;11.70;99.90;;;;;;5034530;28;20029;-87
2023/08/08 02:44:22;;;;;;;3.50;1.67;;;11.70;99.90;;;;;;5034550;28;20029;-86
2023/08/08 02:46:48;;;;;;;8.45;2.80;;;11.70;99.90;;;;;;5027498;28;20691;-88
2023/08/08 02:49:14;;;;;;;5.20;1.60;;;11.70;99.90;;;;;;5051390;28;20096;-88
2023/08/08 02:51:40;;;;;;;4.80;1.80;;;11.70;99.90;;;;;;5052394;28;20031;-86
2023/08/08 02:54:06;;;;;;;2.55;1.80;;;11.70;99.90;;;;;;5052694;28;20033;-88
2023/08/08 02:56:31;;;;;;;2.97;1.98;;;11.60;99.90;;;;;;5052480;28;20025;-88
2023/08/08 02:58:58;;;;;;;4.40;1.70;;;11.60;99.90;;;;;;5052709;28;20036;-87
2023/08/08 03:01:23;;;;;;;4.28;1.85;;;11.60;99.90;;;;;;5034841;28;20031;-87
2023/08/08 03:03:49;;;;;;;4.60;1.60;;;11.50;99.90;;;;;;5035274;23;20034;-82
2023/08/08 03:06:15;;;;;;;6.22;1.90;;;11.40;99.90;;;;;;4993241;28;20053;-82
2023/08/08 03:08:41;;;;;;;4.00;1.30;;;11.50;99.90;;;;;;4993318;28;20042;-82
2023/08/08 03:11:06;;;;;;;3.25;1.80;;;11.60;99.90;;;;;;4992828;28;20497;-82
2023/08/08 03:13:32;;;;;;;2.63;1.48;;;11.50;99.90;;;;;;4989627;28;20487;-83
2023/08/08 03:15:58;;;;;;;4.82;1.80;;;11.50;99.90;;;;;;4993284;28;20032;-82
2023/08/08 03:18:25;;;;;;;3.75;1.60;;;11.40;99.90;;;;;;4975299;28;20034;-82
2023/08/08 03:20:51;;;;;;;5.32;1.50;;;11.40;99.90;;;;;;4993161;28;20030;-82
2023/08/08 03:23:17;;;;;;;3.80;1.60;;;11.30;99.90;;;;;;4993105;28;20026;-82
2023/08/08 03:25:43;;;;;;;2.67;1.70;;;11.40;99.90;;;;;;4992783;28;20356;-83
2023/08/08 03:28:08;;;;;;;3.15;1.58;;;11.30;99.90;;;;;;4992699;28;20430;-83
2023/08/08 03:30:37;;;;;;;3.03;1.77;;;11.30;99.90;;;;;;4992511;28;20026;-82
2023/08/08 03:33:03;;;;;;;4.60;2.58;;;11.30;99.90;;;;;;4975383;28;20061;-82
2023/08/08 03:35:28;;;;;;;3.15;1.90;;;11.30;99.90;;;;;;4995404;28;20128;-82
2023/08/08 03:37:54;;;;;;;4.13;1.60;;;11.20;99.90;;;;;;4974641;28;20042;-82
2023/08/08 03:40:20;;;;;;;3.00;1.40;;;11.10;99.90;;;;;;4990743;28;20018;-83
2023/08/08 03:42:45;;;;;;;3.67;1.70;;;11.10;99.90;;;;;;4974580;28;20387;-82
2023/08/08 03:45:11;;;;;;;2.75;1.73;;;11.00;99.90;;;;;;4991067;28;20026;-82
2023/08/08 03:47:37;;;;;;;2.60;1.75;;;10.90;99.90;;;;;;4992018;28;20014;-83
2023/08/08 03:50:04;;;;;;;6.80;2.83;;;10.90;99.90;;;;;;4991798;28;20111;-82
2023/08/08 03:52:31;;;;;;;3.60;1.92;;;10.80;99.90;;;;;;4974656;28;20014;-83
2023/08/08 03:54:56;;;;;;;3.90;1.70;;;10.80;99.90;;;;;;4998378;28;20402;-83
2023/08/08 03:57:22;;;;;;;2.53;1.60;;;10.70;99.90;;;;;;4992177;28;20041;-82
2023/08/08 03:59:48;;;;;;;3.30;1.60;;;10.70;99.90;;;;;;4992292;28;20026;-83
2023/08/08 04:02:13;;;;;;;5.38;1.48;;;10.60;99.90;;;;;;4992496;28;20018;-83
2023/08/08 04:04:39;;;;;;;2.35;1.95;;;10.60;99.90;;;;;;5039470;23;20452;-87
2023/08/08 04:07:04;;;;;;;3.85;1.70;;;10.60;99.90;;;;;;5027856;28;20026;-88
2023/08/08 04:09:31;;;;;;;2.80;1.73;;;10.60;99.90;;;;;;5028211;28;20046;-87
2023/08/08 04:11:56;;;;;;;4.40;1.55;;;10.50;99.90;;;;;;5042200;28;20061;-87
2023/08/08 04:14:22;;;;;;;2.13;1.52;;;10.40;99.90;;;;;;5028523;28;20053;-87
2023/08/08 04:16:48;;;;;;;2.03;1.40;;;10.40;99.90;;;;;;5010361;28;20038;-87
2023/08/08 04:19:13;;;;;;;4.88;1.90;;;10.30;99.90;;;;;;5028542;28;20481;-86
2023/08/08 04:21:39;;;;;;;4.53;2.00;;;10.30;99.90;;;;;;5030747;28;20025;-87
2023/08/08 04:24:07;;;;;;;6.72;2.15;;;10.30;99.90;;;;;;5030801;28;20026;-88
2023/08/08 04:26:33;;;;;;;5.50;1.95;;;10.30;99.90;;;;;;5011771;28;20026;-86
2023/08/08 04:28:59;;;;;;;4.53;1.42;;;10.30;99.90;;;;;;5011765;28;20037;-87
2023/08/08 04:31:25;;;;;;;3.15;2.03;;;10.20;99.90;;;;;;5030887;28;20021;-87
2023/08/08 04:33:52;;;;;;;2.85;1.88;;;10.20;99.90;;;;;;5030638;28;20018;-89
2023/08/08 04:36:18;;;;;;;3.83;1.95;;;10.20;99.90;;;;;;5013777;28;20617;-88
2023/08/08 04:38:43;;;;;;;5.30;1.77;;;10.30;99.90;;;;;;5031456;28;20026;-89
2023/08/08 04:41:09;;;;;;;3.15;1.83;;;10.40;99.90;;;;;;5031391;28;20021;-89
2023/08/08 04:43:34;;;;;;;7.05;2.13;;;10.40;99.90;;;;;;5012170;28;20025;-88
2023/08/08 04:46:00;;;;;;;4.22;1.95;;;10.50;99.90;;;;;;5031780;28;20024;-88
2023/08/08 04:48:26;;;;;;;3.53;2.17;;;10.60;99.90;;;;;;5013019;28;20128;-88
2023/08/08 04:50:51;;;;;;;3.92;2.00;;;10.70;99.90;;;;;;5030924;28;20021;-88
2023/08/08 04:53:17;;;;;;;4.10;1.90;;;10.80;99.90;;;;;;5012864;28;20393;-87
2023/08/08 04:55:43;;;;;;;4.47;2.00;;;10.90;99.90;;;;;;5030876;28;20485;-87
2023/08/08 04:58:08;;;;;;;5.85;1.95;;;11.00;99.90;;;;;;5034239;28;20163;-86
2023/08/08 05:00:35;;;;;;;2.53;1.38;;;11.10;99.90;;;;;;5016744;28;20505;-87
2023/08/08 05:03:01;;;;;;;8.52;1.90;;;11.10;99.90;;;;;;5057421;22;20032;-81
2023/08/08 05:05:27;;;;;;;2.58;1.75;;;11.20;99.90;;;;;;5053118;28;20033;-82
2023/08/08 05:07:52;;;;;;;3.35;1.92;;;11.30;99.90;;;;;;5054902;28;20029;-82
2023/08/08 05:10:18;;;;;;;7.85;1.90;;;11.40;99.90;;;;;;5053774;28;20573;-81
2023/08/08 05:12:44;;;;;;;4.70;1.90;;;11.40;99.90;;;;;;5068889;28;20365;-81
2023/08/08 05:15:10;;;;;;;6.88;1.75;;;11.50;99.90;;;;;;5053212;28;20029;-82
2023/08/08 05:17:36;;;;;;;4.50;1.85;;;11.60;99.90;;;;;;5035703;28;20090;-82
2023/08/08 05:20:02;;;;;;;6.53;1.67;;;11.70;99.90;;;;;;5053203;28;20013;-82
2023/08/08 05:22:28;;;;;;;6.70;1.88;;;11.70;99.90;;;;;;5053519;28;20024;-82
2023/08/08 05:24:53;;;;;;;2.95;1.85;;;11.80;99.90;;;;;;5052793;28;20480;-82
2023/08/08 05:27:19;;;;;;;4.95;1.63;;;11.90;99.90;;;;;;5053167;28;20032;-82
2023/08/08 05:29:45;;;;;;;6.32;2.08;;;11.90;99.90;;;;;;5035772;28;20028;-82
2023/08/08 05:32:10;;;;;;;3.35;1.50;;;12.10;99.90;;;;;;5035288;28;20028;-82
2023/08/08 05:34:36;;;;;;;5.97;1.85;;;12.10;99.90;;;;;;5052811;28;20029;-81
2023/08/08 05:37:03;;;;;;;7.88;1.58;;;12.20;99.90;;;;;;5053500;28;20351;-82
2023/08/08 05:39:29;;;;;;;4.38;1.88;;;12.40;99.90;;;;;;5047240;28;20060;-82
2023/08/08 05:41:55;;;;;;;7.28;1.83;;;12.50;99.90;;;;;;5052641;28;20029;-81
2023/08/08 05:44:21;;;;;;;5.43;2.28;;;12.60;99.90;;;;;;5052463;28;20090;-81
2023/08/08 05:46:46;;;;;;;4.60;1.85;;;12.80;99.90;;;;;;5038777;28;20017;-82
2023/08/08 05:49:12;;;;;;;5.13;1.90;;;13.00;99.90;;;;;;5051868;28;20047;-82
2023/08/08 05:51:37;;;;;;;1.55;1.45;;;13.10;99.90;;;;;;5052705;28;20024;-81
2023/08/08 05:54:03;;;;;;;2.40;1.75;;;13.30;99.90;;;;;;5052710;28;20020;-82
2023/08/08 05:56:38;;;;;;;4.60;2.05;;;13.40;99.90;;;;;;5052374;28;20044;-80
2023/08/08 05:59:04;;;;;;;3.38;1.30;;;13.60;99.90;;;;;;5052212;28;20029;-80
2023/08/08 06:01:31;;;;;;;3.40;1.30;;;13.60;99.90;;;;;;5052774;28;20370;-79
2023/08/08 06:03:59;;;;;;;3.17;1.55;;;13.70;99.90;;;;;;5041119;23;20384;-85
2023/08/08 06:06:25;;;;;;;4.65;1.90;;;13.80;99.90;;;;;;4996746;28;20030;-84
2023/08/08 06:08:51;;;;;;;2.38;1.40;;;13.90;99.90;;;;;;4994208;28;20034;-84
2023/08/08 06:11:17;;;;;;;4.13;1.40;;;14.00;99.90;;;;;;5014611;28;20056;-85
2023/08/08 06:13:43;;;;;;;5.10;1.70;;;14.10;99.90;;;;;;5007022;28;20104;-85
2023/08/08 06:16:09;;;;;;;4.13;1.70;;;14.20;99.90;;;;;;4994705;28;20471;-85
2023/08/08 06:18:35;;;;;;;5.20;1.65;;;14.20;99.90;;;;;;4994463;28;20433;-86
2023/08/08 06:21:01;;;;;;;2.70;1.65;;;14.20;99.90;;;;;;5001579;28;20115;-86
2023/08/08 06:23:27;;;;;;;2.50;1.60;;;14.20;99.90;;;;;;4994327;28;20054;-86
2023/08/08 06:25:52;;;;;;;3.28;1.60;;;14.10;99.90;;;;;;4994289;28;20041;-85
2023/08/08 06:28:18;;;;;;;6.80;2.08;;;14.20;99.90;;;;;;5001525;28;21593;-85
2023/08/08 06:30:44;;;;;;;2.88;1.60;;;14.20;99.90;;;;;;4994300;28;20022;-85
2023/08/08 06:33:09;;;;;;;4.18;1.60;;;14.40;99.90;;;;;;4994294;28;20033;-86
2023/08/08 06:35:35;;;;;;;3.50;2.22;;;14.60;99.90;;;;;;4994882;28;20023;-84
2023/08/08 06:38:01;;;;;;;3.95;1.60;;;14.90;99.90;;;;;;4994040;28;20030;-85
2023/08/08 06:40:27;;;;;;;3.85;1.50;;;15.10;99.90;;;;;;4993866;28;20594;-85
2023/08/08 06:42:53;;;;;;;2.03;1.60;;;15.30;99.90;;;;;;4977169;28;20571;-84
2023/08/08 06:45:18;;;;;;;1.60;1.30;;;15.40;99.90;;;;;;4976010;28;20035;-84
2023/08/08 06:47:45;;;;;;;4.30;1.42;;;15.50;99.90;;;;;;4993951;28;20038;-87
2023/08/08 06:50:10;;;;;;;2.17;1.60;;;15.60;99.90;;;;;;4975873;28;20439;-85
2023/08/08 06:52:36;;;;;;;2.92;1.67;;;15.70;99.90;;;;;;4993751;28;20019;-85
2023/08/08 06:55:02;;;;;;;2.78;1.25;;;15.90;99.90;;;;;;4992641;28;20394;-86
2023/08/08 06:57:30;;;;;;;3.80;1.58;;;16.00;99.90;;;;;;4993742;28;20591;-85
2023/08/08 06:59:55;;;;;;;4.50;1.30;;;16.20;99.90;;;;;;4983397;28;20027;-85
2023/08/08 07:02:21;;;;;;;2.40;1.30;;;16.30;99.90;;;;;;4993278;28;20033;-85
2023/08/08 07:04:47;;;;;;;4.45;1.20;;;16.40;99.90;;;;;;4974873;28;20049;-84
2023/08/08 07:07:12;;;;;;;4.20;1.25;;;16.50;99.90;;;;;;4975812;28;20027;-85
2023/08/08 07:09:38;;;;;;;1.63;1.20;;;16.50;99.30;;;;;;4993709;28;20022;-86
2023/08/08 07:12:05;;;;;;;2.17;1.15;;;16.50;98.60;;;;;;4997840;28;20375;-87
2023/08/08 07:14:30;;;;;;;3.78;1.35;;;16.50;98.70;;;;;;4996796;28;20034;-84
2023/08/08 07:16:56;;;;;;;2.63;1.40;;;16.50;99.10;;;;;;4993470;28;20023;-86
2023/08/08 07:19:22;;;;;;;5.65;1.50;;;16.50;98.90;;;;;;4993518;28;20025;-86
2023/08/08 07:21:47;;;;;;;2.00;1.30;;;16.70;99.00;;;;;;4993264;28;20029;-85
2023/08/08 07:24:13;;;;;;;2.28;1.35;;;16.70;98.70;;;;;;4992635;28;20031;-84
2023/08/08 07:26:39;;;;;;;5.40;1.67;;;16.70;98.20;;;;;;4993189;28;20467;-86
2023/08/08 07:29:05;;;;;;;3.05;1.80;;;16.80;98.20;;;;;;4993442;28;20038;-86
2023/08/08 07:31:32;;;;;;;3.80;1.55;;;16.80;98.80;;;;;;4992837;28;20537;-85
2023/08/08 07:33:58;;;;;;;2.88;1.33;;;16.90;98.00;;;;;;5032938;23;20049;-81
2023/08/08 07:36:23;;;;;;;3.53;1.40;;;17.00;98.60;;;;;;5033462;28;20386;-79
2023/08/08 07:38:49;;;;;;;5.25;1.70;;;17.00;98.30;;;;;;5051255;28;20166;-79
2023/08/08 07:41:15;;;;;;;5.68;1.20;;;17.10;98.60;;;;;;5033898;28;20024;-80
2023/08/08 07:43:40;;;;;;;4.68;1.40;;;17.10;97.30;;;;;;5051697;28;20448;-81
2023/08/08 07:46:06;;;;;;;3.20;1.85;;;17.10;96.90;;;;;;5033393;28;20021;-80
2023/08/08 07:48:32;;;;;;;7.35;1.73;;;17.10;97.10;;;;;;5051282;28;20064;-81
2023/08/08 07:50:58;;;;;;;1.50;1.20;;;17.30;97.40;;;;;;5050818;28;20104;-81
2023/08/08 07:53:23;;;;;;;3.10;1.73;;;17.40;97.50;;;;;;5051102;28;20021;-80
2023/08/08 07:55:49;;;;;;;2.42;1.38;;;17.40;97.00;;;;;;5051357;28;20071;-81
2023/08/08 07:58:15;;;;;;;3.40;1.58;;;17.40;97.10;;;;;;5051601;28;20033;-81
2023/08/08 08:00:40;;;;;;;2.65;1.25;;;17.50;96.70;;;;;;5050863;28;20067;-79
2023/08/08 08:03:06;;;;;;;5.93;1.45;;;17.50;96.90;;;;;;5033739;28;20025;-81
2023/08/08 08:05:34;;;;;;;4.05;1.60;;;17.50;96.40;;;;;;5051096;28;20018;-81
2023/08/08 08:08:00;;;;;;;2.53;1.30;;;17.60;97.20;;;;;;5051626;28;20028;-81
2023/08/08 08:10:26;;;;;;;4.13;1.80;;;17.60;96.20;;;;;;5051498;28;20035;-81
2023/08/08 08:12:57;;;;;;;8.65;1.60;;;17.60;96.90;;;;;;5051045;28;20035;-80
2023/08/08 08:15:23;;;;;;;3.80;1.80;;;17.70;96.70;;;;;;5051193;28;20021;-81
2023/08/08 08:17:49;;;;;;;4.30;1.50;;;17.80;97.00;;;;;;5032349;28;20048;-80
2023/08/08 08:20:15;;;;;;;7.30;1.83;;;17.70;97.30;;;;;;5053125;28;20056;-80
2023/08/08 08:22:40;;;;;;;4.03;1.63;;;17.90;96.60;;;;;;5032456;28;20017;-80
2023/08/08 08:25:09;;;;;;;1.92;1.40;;;17.90;96.50;;;;;;5050279;28;20032;-81
2023/08/08 08:27:37;;;;;;;4.40;1.40;;;18.10;96.70;;;;;;5050317;28;20159;-79
2023/08/08 08:30:05;;;;;;;3.28;1.38;;;18.40;96.40;;;;;;5056225;28;20025;-79
2023/08/08 08:32:38;;;;;;;5.43;1.60;;;18.60;95.60;;;;;;5031312;28;20355;-79
2023/08/08 08:35:06;;;;;;;4.45;1.60;;;18.80;95.90;;;;;;5043164;28;20116;-80
2023/08/08 08:37:32;;;;;;;5.03;1.40;;;18.90;95.50;;;;;;5032453;28;20025;-81
2023/08/08 08:39:57;;;;;;;3.47;1.50;;;18.80;95.70;;;;;;5049941;28;20374;-80
2023/08/08 08:42:23;;;;;;;6.40;1.75;;;18.60;95.60;;;;;;5050518;28;20021;-81
2023/08/08 08:44:51;;;;;;;6.38;1.65;;;18.60;97.10;;;;;;5050972;28;20021;-79
2023/08/08 08:47:19;;;;;;;3.58;1.20;;;18.60;96.50;;;;;;5032630;28;20474;-80
2023/08/08 08:49:45;;;;;;;7.22;2.67;;;18.70;97.00;;;;;;5033053;28;20025;-79
2023/08/08 08:52:12;;;;;;;2.95;1.50;;;19.00;96.50;;;;;;5050461;28;20013;-79
2023/08/08 08:54:38;;;;;;;3.42;1.52;;;19.10;96.30;;;;;;5050245;28;20102;-80
2023/08/08 08:57:04;;;;;;;5.68;1.42;;;19.40;95.50;;;;;;5032024;28;20477;-80
2023/08/08 08:59:29;;;;;;;5.28;2.13;;;19.40;94.70;;;;;;5050706;28;20024;-80
2023/08/08 09:01:56;;;;;;;6.78;1.60;;;19.60;94.90;;;;;;5050827;28;20370;-81
2023/08/08 09:04:22;;;;;;;4.43;1.60;;;19.90;95.00;;;;;;5075632;22;20116;-90
2023/08/08 09:06:50;;;;;;;5.70;1.88;;;20.00;94.50;;;;;;5059771;28;20082;-91
2023/08/08 09:09:16;;;;;;;4.43;1.52;;;19.90;94.30;;;;;;5059957;28;20040;-90
2023/08/08 09:11:53;;;;;;;8.32;2.20;;;19.80;94.50;;;;;;5052738;28;20079;-89
2023/08/08 09:14:24;;;;;;;6.78;1.70;;;19.70;95.30;;;;;;5046359;28;20029;-88
2023/08/08 09:16:52;;;;;;;3.63;1.50;;;19.50;94.70;;;;;;5051949;28;20017;-91
2023/08/08 09:19:18;;;;;;;3.50;1.88;;;19.60;95.30;;;;;;5033662;28;20040;-90
2023/08/08 09:21:44;;;;;;;3.65;1.35;;;19.70;95.40;;;;;;5051959;28;20018;-90
2023/08/08 09:24:10;;;;;;;3.40;1.13;;;19.80;95.50;;;;;;5051903;28;20029;-89
2023/08/08 09:26:35;;;;;;;3.95;1.33;;;19.80;95.30;;;;;;5051211;28;20134;-91
2023/08/08 09:29:02;;;;;;;3.05;1.27;;;19.80;94.90;;;;;;5051238;28;20108;-90
2023/08/08 09:31:29;;;;;;;5.75;1.85;;;19.90;94.80;;;;;;5045668;28;20016;-90
2023/08/08 09:33:58;;;;;;;3.95;1.38;;;19.90;94.70;;;;;;5050980;28;20033;-89
2023/08/08 09:36:23;;;;;;;3.53;1.33;;;20.00;94.70;;;;;;5051177;28;20025;-91
2023/08/08 09:38:49;;;;;;;3.15;1.08;;;20.10;93.70;;;;;;5048137;28;20021;-89
2023/08/08 09:41:15;;;;;;;4.35;1.25;;;19.80;94.20;;;;;;5050224;28;20056;-88
2023/08/08 09:43:44;;;;;;;3.63;1.23;;;19.70;94.20;;;;;;5052590;28;20071;-88
2023/08/08 09:46:10;;;;;;;2.22;1.20;;;19.70;94.70;;;;;;5037454;28;20017;-88
2023/08/08 09:48:38;;;;;;;3.08;1.45;;;19.60;95.20;;;;;;5037224;28;20036;-88
2023/08/08 09:51:05;;;;;;;5.15;1.10;;;19.80;95.20;;;;;;5054759;28;20021;-89
2023/08/08 09:53:31;;;;;;;7.40;1.30;;;20.00;95.90;;;;;;5036835;28;20025;-90
2023/08/08 09:55:57;;;;;;;3.17;1.00;;;20.10;95.30;;;;;;5049854;28;20066;-88
2023/08/08 09:58:24;;;;;;;3.97;1.25;;;20.00;94.90;;;;;;5054848;28;20037;-88
2023/08/08 10:00:50;;;;;;;5.30;1.52;;;20.10;94.30;;;;;;5055020;28;20028;-90
2023/08/08 10:03:19;;;;;;;2.22;0.85;;;19.80;94.50;;;;;;5076588;23;20021;-80
2023/08/08 10:05:45;;;;;;;5.80;1.17;;;19.80;94.90;;;;;;5061224;28;20036;-81
2023/08/08 10:08:15;;;;;;;4.07;1.08;;;19.80;95.80;;;;;;5072332;28;20127;-80
2023/08/08 10:10:43;;;;;;;1.80;1.08;;;19.80;96.00;;;;;;5072820;28;20039;-81
2023/08/08 10:13:10;;;;;;;3.33;1.13;;;19.90;96.60;;;;;;5053713;28;20085;-81
2023/08/08 10:15:39;;;;;;;3.78;1.20;;;19.80;98.10;;;;;;5034518;28;20071;-81
2023/08/08 10:18:07;;;;;;;4.30;1.23;;;19.40;99.90;;;;;;5052384;28;20025;-81
2023/08/08 10:20:36;;;;;;;2.08;1.20;;;19.20;99.90;;;;;;5038359;28;20021;-80
2023/08/08 10:23:02;;;;;;;2.03;1.08;;;19.30;99.90;;;;;;5052471;28;20086;-81
2023/08/08 10:25:30;;;;;;;2.80;0.93;;;19.10;99.90;;;;;;5052349;28;20018;-80
2023/08/08 10:28:08;;;;;;;3.10;0.80;;;19.00;99.90;;;;;;5052016;28;20029;-80
2023/08/08 10:30:57;;;;;;;2.78;0.90;;;18.80;99.90;;;;;;5038968;28;20525;-81
2023/08/08 10:33:38;;;;;;;3.90;0.80;;;18.60;99.90;;;;;;5025838;28;20474;-81
2023/08/08 10:36:09;;;;;;;3.70;1.40;;;18.60;99.90;;;;;;5039147;28;20094;-81
2023/08/08 10:38:43;;;;;;;5.03;1.73;;;18.40;99.90;;;;;;5052104;28;20024;-81
2023/08/08 10:41:11;;;;;;;2.90;1.75;;;18.40;99.90;;;;;;5051585;28;20087;-81
2023/08/08 10:43:37;;;;;;;5.45;1.30;;;18.30;99.90;;;;;;5052000;28;20010;-81
2023/08/08 10:46:04;;;;;;;6.30;1.63;;;18.10;99.90;;;;;;5034273;28;20071;-82
2023/08/08 10:48:30;;;;;;;3.10;1.90;;;18.20;99.90;;;;;;5051400;28;20111;-81
2023/08/08 10:51:00;;;;;;;4.60;1.52;;;18.40;99.90;;;;;;5051210;28;20060;-80
2023/08/08 10:53:27;;;;;;;6.72;1.60;;;18.60;99.90;;;;;;5051673;28;20040;-81
2023/08/08 10:56:01;;;;;;;6.80;2.00;;;18.80;99.90;;;;;;5051691;28;20016;-81
2023/08/08 10:58:48;;;;;;;3.90;1.48;;;19.10;99.90;;;;;;5051369;28;20033;-82
2023/08/08 11:01:14;;;;;;;3.55;1.70;;;19.60;99.90;;;;;;5050843;28;20025;-81
2023/08/08 11:03:41;;;;;;;4.25;1.70;;;19.60;99.80;;;;;;5084351;22;20049;-92
2023/08/08 11:06:08;;;;;;;7.85;2.03;;;19.50;99.90;;;;;;5069269;28;20087;-90
2023/08/08 11:08:35;;;;;;;5.15;1.75;;;19.40;99.90;;;;;;5055378;28;20495;-90
2023/08/08 11:11:03;;;;;;;7.32;1.65;;;19.30;99.70;;;;;;5063416;28;20048;-92
2023/08/08 11:13:29;;;;;;;4.53;1.60;;;19.00;99.90;;;;;;5061644;28;20030;-91
2023/08/08 11:15:54;;;;;;;5.05;2.00;;;18.80;99.90;;;;;;5056298;28;20100;-92
2023/08/08 11:18:21;;;;;;;8.85;2.00;;;18.70;99.90;;;;;;5039255;28;20031;-90
2023/08/08 11:20:47;;;;;;;5.68;1.80;;;18.60;99.90;;;;;;5066659;28;20043;-90
2023/08/08 11:23:13;;;;;;;5.53;2.08;;;18.50;99.90;;;;;;5054613;28;20385;-89
2023/08/08 11:25:43;;;;;;;3.10;1.42;;;18.50;99.90;;;;;;5061358;28;20078;-91
2023/08/08 11:28:10;;;;;;;7.43;1.75;;;18.50;99.90;;;;;;5055130;28;20055;-90
2023/08/08 11:30:39;;;;;;;4.68;2.05;;;18.40;99.90;;;;;;5054216;28;20017;-90
2023/08/08 11:33:05;;;;;;;3.33;1.35;;;18.70;99.80;;;;;;5054055;28;20020;-92
2023/08/08 11:35:31;;;;;;;5.32;1.33;;;18.80;99.10;;;;;;5061650;28;20028;-93
2023/08/08 11:37:58;;;;;;;4.75;1.60;;;18.80;98.80;;;;;;5053817;28;20013;-90
2023/08/08 11:40:28;;;;;;;3.78;1.27;;;18.80;99.40;;;;;;5053408;28;20025;-93
2023/08/08 11:42:55;;;;;;;5.78;1.60;;;18.90;99.20;;;;;;5055435;28;20489;-91
2023/08/08 11:45:21;;;;;;;5.07;1.70;;;18.90;99.20;;;;;;5040876;28;20031;-88
2023/08/08 11:47:51;;;;;;;6.05;1.63;;;18.90;99.60;;;;;;5049165;28;20028;-92
2023/08/08 11:50:22;;;;;;;10.55;1.95;;;19.20;99.90;;;;;;5058663;28;20039;-91
2023/08/08 11:52:49;;;;;;;8.02;1.38;;;19.80;99.70;;;;;;5060848;28;20087;-88
2023/08/08 11:55:15;;;;;;;3.78;1.88;;;19.90;98.50;;;;;;5036075;28;20017;-89
2023/08/08 11:57:41;;;;;;;6.53;1.70;;;20.10;98.20;;;;;;5054440;28;20078;-93
2023/08/08 12:00:09;;;;;;;6.50;1.65;;;20.10;97.80;;;;;;5054067;28;20021;-90
2023/08/08 12:02:35;;;;;;;4.63;1.17;;;20.30;97.90;;;;;;5053722;28;20028;-91
2023/08/08 12:05:08;;;;;;;7.85;2.20;;;20.40;97.20;;;;;;5038794;23;20041;-79
2023/08/08 12:07:35;;;;;;;3.85;1.10;;;20.60;96.60;;;;;;5030224;28;20032;-79
2023/08/08 12:10:04;;;;;;;8.13;1.88;;;20.80;95.60;;;;;;5011117;28;20022;-80
2023/08/08 12:12:34;;;;;;;4.82;1.60;;;20.70;95.40;;;;;;5031624;28;20095;-80
2023/08/08 12:15:06;;;;;;;8.20;1.80;;;20.90;95.40;;;;;;5030525;28;20022;-81
2023/08/08 12:17:32;;;;;;;3.83;1.52;;;21.00;95.00;;;;;;5030405;28;20025;-80
2023/08/08 12:20:03;;;;;;;9.88;2.78;;;21.20;94.10;;;;;;5012209;28;20539;-80
2023/08/08 12:22:29;;;;;;;5.40;1.42;;;21.20;94.00;;;;;;5030488;28;20105;-84
2023/08/08 12:24:54;;;;;;;2.80;1.27;;;21.00;93.10;;;;;;5030125;28;20478;-81
2023/08/08 12:27:20;;;;;;;2.63;1.17;;;20.90;92.90;;;;;;5030221;28;20029;-82
2023/08/08 12:29:46;;;;;;;3.03;1.30;;;20.80;92.40;;;;;;5027044;28;20445;-82
2023/08/08 12:32:12;;;;;;;7.80;1.60;;;20.90;92.50;;;;;;5021711;28;20040;-82
2023/08/08 12:34:37;;;;;;;11.02;1.58;;;20.80;92.60;;;;;;5012462;28;20441;-81
2023/08/08 12:37:03;;;;;;;8.48;1.63;;;20.80;93.20;;;;;;5030554;28;20025;-80
2023/08/08 12:39:29;;;;;;;6.05;1.40;;;20.50;93.70;;;;;;5029726;28;20032;-80
2023/08/08 12:41:56;;;;;;;7.22;1.55;;;20.50;94.20;;;;;;5030011;28;20068;-81